Airfield :







YOU CAN JOIN US ON...

 
LOGIN :

Register | Disclaimer

   EN    FR    IT 

 









Legend :    VFR   Marginal VFR   IFR   Intensive IFR   Very Intensive IFR
Visi :
Ceiling :
>= 8 km
>= 3000ft
5 to 8 km
1000 to 3000 ft
1500m to 5 km
500 to 1000 ft
800 to 1500m
200 to 500 ft
< 800m
< 200 ft
Symbols :   Thunderstorms  Fog  Heavy snow  Heavy precipitations  Wind > 20 kt







- Airport Elevation : 881 ft


KNY0 - Fulton County

CURRENT METAR :
  • 161337Z AUTO 00000KT 10SM CLR 15/11 A3014 RMK AO2

EXPIRED METARs :
  • 161318Z AUTO 00000KT 10SM CLR 14/11 A3013 RMK AO2
  • 161300Z AUTO 00000KT 10SM CLR 13/13 A3014 RMK AO2
  • 161237Z AUTO 00000KT 10SM CLR 12/12 A3013 RMK AO2
  • 161217Z AUTO 00000KT 10SM CLR 12/12 A3013 RMK AO2
  • 161158Z AUTO 00000KT 10SM CLR 12/12 A3013 RMK AO2
  • 161139Z AUTO 00000KT 10SM CLR 11/11 A3013 RMK AO2
  • 161120Z AUTO 00000KT 10SM CLR 11/11 A3012 RMK AO2
  • 161057Z AUTO 00000KT 10SM CLR 10/10 A3012 RMK AO2

TAF N/A
No reported NOTAMs for that airfield.



MET'MAP, your aeronautical weather chart ! - Copyright ORBIFLY December 2007 - Disclaimer

ORBIFLY MET'MAP TEAM :

Programming & Development : Alexandra Zaïnal
Concept & Development : Baudouin d'Aumeries
Co-Development & Prog : Marc-Olivier Méhu
Technical & hardware support : Manuel Goepfert

Contact : metmap@orbifly.com




SOURCES & CREDITS :

   NOAA